createdAt,value
2023-02-13T00:00:39.415Z,103330.03
2023-02-13T00:03:06.442Z,103328.28
2023-02-13T00:05:33.516Z,103320.34
2023-02-13T00:08:00.508Z,103323.13
2023-02-13T00:10:27.696Z,103314.22
2023-02-13T00:12:56.312Z,103318.63
2023-02-13T00:15:23.271Z,103325.81
2023-02-13T00:17:50.439Z,103319.59
2023-02-13T00:20:17.365Z,103324.97
2023-02-13T00:22:44.373Z,103318.75
2023-02-13T00:25:11.570Z,103325.00
2023-02-13T00:27:38.536Z,103315.25
2023-02-13T00:30:06.378Z,103322.44
2023-02-13T00:32:33.318Z,103319.81
2023-02-13T00:35:00.328Z,103313.59
2023-02-13T00:37:27.256Z,103315.25
2023-02-13T00:39:54.150Z,103316.16
2023-02-13T00:42:24.059Z,103315.25
2023-02-13T00:44:51.111Z,103308.22
2023-02-13T00:47:18.866Z,103316.28
2023-02-13T00:49:45.774Z,103293.19
2023-02-13T00:52:12.992Z,103305.72
2023-02-13T00:54:40.102Z,103303.88
2023-02-13T00:57:07.100Z,103302.13
2023-02-13T00:59:34.949Z,103302.13
2023-02-13T01:02:01.977Z,103307.50
2023-02-13T01:04:28.940Z,103303.94
2023-02-13T01:06:57.627Z,103303.97
2023-02-13T01:09:25.420Z,103298.59
2023-02-13T01:11:52.390Z,103311.03
2023-02-13T01:14:19.380Z,103303.94
2023-02-13T01:16:47.728Z,103304.81
2023-02-13T01:19:14.711Z,103311.09
2023-02-13T01:21:44.030Z,103306.63
2023-02-13T01:24:11.011Z,103305.69
2023-02-13T01:26:37.971Z,103299.44
2023-02-13T01:29:05.165Z,103300.31
2023-02-13T01:31:32.897Z,103298.56
2023-02-13T01:34:00.409Z,103292.44
2023-02-13T01:36:27.438Z,103292.31
2023-02-13T01:38:57.850Z,103289.59
2023-02-13T01:41:27.218Z,103294.94
2023-02-13T01:43:58.752Z,103280.75
2023-02-13T01:46:31.505Z,103297.56
2023-02-13T01:49:14.020Z,103293.16
2023-02-13T01:51:42.229Z,103294.97
2023-02-13T01:54:27.275Z,103282.56
2023-02-13T01:57:05.253Z,103286.91
2023-02-13T01:59:41.969Z,103279.84
2023-02-13T02:02:09.219Z,103279.84
2023-02-13T02:04:40.246Z,103276.22
2023-02-13T02:07:20.610Z,103276.22
2023-02-13T02:09:51.687Z,103271.84
2023-02-13T02:12:32.225Z,103277.19
2023-02-13T02:15:01.774Z,103271.03
2023-02-13T02:17:31.922Z,103279.88
2023-02-13T02:20:30.284Z,103269.16
2023-02-13T02:23:57.608Z,103274.50
2023-02-13T02:26:59.827Z,103265.56
2023-02-13T02:29:49.638Z,103270.81
2023-02-13T02:32:37.690Z,103269.97
2023-02-13T02:35:39.569Z,103263.81
2023-02-13T02:38:29.870Z,103268.25
2023-02-13T02:41:45.058Z,103271.75
2023-02-13T02:44:42.977Z,103263.75
2023-02-13T02:47:34.541Z,103255.75
2023-02-13T02:50:31.020Z,103257.50
2023-02-13T02:53:31.380Z,103250.34
2023-02-13T02:56:31.394Z,103249.53
2023-02-13T02:59:30.328Z,103245.09
2023-02-13T03:02:20.283Z,103254.03
2023-02-13T03:05:13.308Z,103241.66
2023-02-13T03:07:40.218Z,103238.22
2023-02-13T03:10:36.349Z,103236.50
2023-02-13T03:13:36.210Z,103242.75
2023-02-13T03:16:22.273Z,103243.63
2023-02-13T03:19:15.844Z,103244.56
2023-02-13T03:22:12.337Z,103244.50
2023-02-13T03:25:02.242Z,103235.59
2023-02-13T03:27:56.458Z,103237.31
2023-02-13T03:30:49.447Z,103226.81
2023-02-13T03:33:52.726Z,103232.91
2023-02-13T03:36:55.965Z,103230.25
2023-02-13T03:39:43.459Z,103238.22
2023-02-13T03:42:45.948Z,103245.34
2023-02-13T03:45:40.101Z,103246.22
2023-02-13T03:48:28.173Z,103239.94
2023-02-13T03:50:57.146Z,103236.41
2023-02-13T03:53:26.842Z,103240.97
2023-02-13T03:56:13.973Z,103242.75
2023-02-13T03:59:10.698Z,103237.38
2023-02-13T04:01:38.762Z,103244.44
2023-02-13T04:04:19.275Z,103252.44
2023-02-13T04:07:09.601Z,103245.34
2023-02-13T04:09:41.194Z,103241.81
2023-02-13T04:12:24.865Z,103253.34
2023-02-13T04:15:18.556Z,103245.41
2023-02-13T04:18:15.422Z,103237.38
2023-02-13T04:20:42.401Z,103240.97
2023-02-13T04:23:10.831Z,103239.13
2023-02-13T04:25:41.472Z,103244.50
2023-02-13T04:28:08.756Z,103240.06
2023-02-13T04:30:35.906Z,103236.50
2023-02-13T04:33:03.033Z,103232.94
2023-02-13T04:35:30.001Z,103240.00
2023-02-13T04:37:56.932Z,103240.00
2023-02-13T04:40:23.875Z,103231.09
2023-02-13T04:42:50.833Z,103241.75
2023-02-13T04:45:17.809Z,103245.31
2023-02-13T04:47:54.724Z,103236.34
2023-02-13T04:50:22.469Z,103237.31
2023-02-13T04:52:54.924Z,103237.38
2023-02-13T04:55:23.858Z,103234.69
2023-02-13T04:57:53.938Z,103231.94
2023-02-13T05:00:23.154Z,103224.78
2023-02-13T05:02:50.298Z,103236.34
2023-02-13T05:05:17.328Z,103233.72
2023-02-13T05:07:44.284Z,103238.97
2023-02-13T05:10:12.534Z,103235.50
2023-02-13T05:12:39.715Z,103247.03
2023-02-13T05:15:07.398Z,103247.94
2023-02-13T05:17:34.337Z,103248.78
2023-02-13T05:20:01.288Z,103241.75
2023-02-13T05:22:46.939Z,103247.06
2023-02-13T05:25:13.842Z,103251.53
2023-02-13T05:27:40.890Z,103250.59
2023-02-13T05:30:08.352Z,103243.47
2023-02-13T05:32:35.282Z,103250.56
2023-02-13T05:35:04.455Z,103247.06
2023-02-13T05:37:32.086Z,103253.28
2023-02-13T05:39:58.985Z,103262.09
2023-02-13T05:42:25.950Z,103251.53
2023-02-13T05:44:52.894Z,103260.41
2023-02-13T05:47:19.828Z,103257.72
2023-02-13T05:49:46.765Z,103263.00
2023-02-13T05:52:13.830Z,103263.91
2023-02-13T05:54:40.748Z,103266.53
2023-02-13T05:57:07.683Z,103267.41
2023-02-13T05:59:34.614Z,103270.91
2023-02-13T06:02:01.551Z,103274.53
2023-02-13T06:04:28.409Z,103261.22
2023-02-13T06:06:55.317Z,103272.75
2023-02-13T06:09:22.271Z,103271.94
2023-02-13T06:11:49.261Z,103274.69
2023-02-13T06:14:16.170Z,103265.91
2023-02-13T06:16:43.115Z,103269.53
2023-02-13T06:19:10.125Z,103269.59
2023-02-13T06:21:38.455Z,103275.00
2023-02-13T06:24:06.959Z,103268.78
2023-02-13T06:26:34.604Z,103262.63
2023-02-13T06:29:01.510Z,103268.03
2023-02-13T06:31:28.634Z,103269.84
2023-02-13T06:33:55.958Z,103269.84
2023-02-13T06:36:22.920Z,103275.22
2023-02-13T06:38:50.006Z,103271.63
2023-02-13T06:41:16.984Z,103276.88
2023-02-13T06:43:43.905Z,103283.09
2023-02-13T06:46:10.864Z,103282.13
2023-02-13T06:48:37.809Z,103280.25
2023-02-13T06:51:04.933Z,103278.50
2023-02-13T06:53:31.859Z,103287.38
2023-02-13T06:55:58.807Z,103291.06
2023-02-13T06:58:26.690Z,103294.53
2023-02-13T07:00:54.150Z,103292.75
2023-02-13T07:03:21.523Z,103302.59
2023-02-13T07:05:51.965Z,103309.72
2023-02-13T07:08:19.331Z,103306.16
2023-02-13T07:10:46.569Z,103305.31
2023-02-13T07:13:13.575Z,103299.03
2023-02-13T07:15:40.702Z,103307.88
2023-02-13T07:18:07.664Z,103309.59
2023-02-13T07:20:34.753Z,103309.66
2023-02-13T07:23:04.111Z,103312.31
2023-02-13T07:25:31.658Z,103313.22
2023-02-13T07:28:06.295Z,103308.78
2023-02-13T07:30:34.752Z,103307.88
2023-02-13T07:33:03.577Z,103301.66
2023-02-13T07:35:30.571Z,103301.66
2023-02-13T07:37:57.774Z,103298.13
2023-02-13T07:40:24.736Z,103306.09
2023-02-13T07:42:51.667Z,103305.13
2023-02-13T07:45:18.551Z,103312.16
2023-02-13T07:47:45.444Z,103308.53
2023-02-13T07:50:13.014Z,103304.03
2023-02-13T07:52:39.969Z,103307.50
2023-02-13T07:55:07.555Z,103304.81
2023-02-13T07:57:34.719Z,103297.63
2023-02-13T08:00:01.778Z,103301.22
2023-02-13T08:02:38.927Z,103304.69
2023-02-13T08:05:06.558Z,103317.19
2023-02-13T08:07:33.817Z,103315.34
2023-02-13T08:10:19.664Z,103311.81
2023-02-13T08:12:46.968Z,103309.09
2023-02-13T08:15:15.705Z,103309.13
2023-02-13T08:17:42.664Z,103315.25
2023-02-13T08:20:11.118Z,103316.97
2023-02-13T08:22:39.417Z,103308.88
2023-02-13T08:25:08.236Z,103310.59
2023-02-13T08:27:35.455Z,103304.34
2023-02-13T08:30:03.188Z,103306.94
2023-02-13T08:32:30.219Z,103303.44
2023-02-13T08:34:57.200Z,103302.38
2023-02-13T08:37:24.716Z,103315.69
2023-02-13T08:39:51.647Z,103296.78
2023-02-13T08:42:18.936Z,103302.94
2023-02-13T08:44:46.045Z,103305.69
2023-02-13T08:47:12.977Z,103311.91
2023-02-13T08:49:40.034Z,103315.34
2023-02-13T08:52:06.947Z,103309.91
2023-02-13T08:54:36.134Z,103313.38
2023-02-13T08:57:03.747Z,103316.00
2023-02-13T08:59:30.738Z,103316.81
2023-02-13T09:01:58.253Z,103319.38
2023-02-13T09:04:25.218Z,103313.81
2023-02-13T09:06:52.284Z,103311.16
2023-02-13T09:09:19.324Z,103316.44
2023-02-13T09:11:46.362Z,103312.00
2023-02-13T09:14:13.356Z,103312.72
2023-02-13T09:16:40.384Z,103320.66
2023-02-13T09:19:07.559Z,103312.53
2023-02-13T09:21:35.069Z,103312.50
2023-02-13T09:24:02.042Z,103317.78
2023-02-13T09:26:28.984Z,103314.00
2023-02-13T09:28:55.940Z,103318.34
2023-02-13T09:31:24.308Z,103324.50
2023-02-13T09:33:51.598Z,103323.47
2023-02-13T09:36:22.580Z,103318.88
2023-02-13T09:38:54.655Z,103322.28
2023-02-13T09:41:36.646Z,103326.63
2023-02-13T09:44:34.529Z,103319.34
2023-02-13T09:47:30.417Z,103324.59
2023-02-13T09:50:17.791Z,103328.91
2023-02-13T09:52:46.715Z,103325.25
2023-02-13T09:55:53.024Z,103327.94
2023-02-13T09:58:45.855Z,103327.09
2023-02-13T10:01:46.191Z,103328.91
2023-02-13T10:04:52.825Z,103333.31
2023-02-13T10:08:01.450Z,103325.25
2023-02-13T10:10:51.504Z,103332.41
2023-02-13T10:13:58.800Z,103334.22
2023-02-13T10:16:35.500Z,103331.41
2023-02-13T10:19:17.630Z,103331.16
2023-02-13T10:21:57.127Z,103324.66
2023-02-13T10:24:41.782Z,103336.13
2023-02-13T10:27:23.999Z,103331.53
2023-02-13T10:30:05.289Z,103331.41
2023-02-13T10:33:19.396Z,103322.22
2023-02-13T10:36:02.803Z,103330.97
2023-02-13T10:38:40.431Z,103330.88
2023-02-13T10:41:23.396Z,103324.44
2023-02-13T10:44:18.970Z,103326.03
2023-02-13T10:47:25.190Z,103334.84
2023-02-13T10:50:11.007Z,103324.06
2023-02-13T10:53:12.084Z,103328.69
2023-02-13T10:56:25.313Z,103327.00
2023-02-13T10:59:25.022Z,103318.84
2023-02-13T11:02:19.152Z,103319.53
2023-02-13T11:04:46.745Z,103309.63
2023-02-13T11:07:21.597Z,103307.50
2023-02-13T11:09:50.219Z,103311.94
2023-02-13T11:12:34.942Z,103309.25
2023-02-13T11:15:07.034Z,103308.28
2023-02-13T11:17:46.690Z,103301.91
2023-02-13T11:20:39.885Z,103302.53
2023-02-13T11:23:31.699Z,103308.59
2023-02-13T11:26:04.992Z,103301.28
2023-02-13T11:28:38.244Z,103302.91
2023-02-13T11:31:20.797Z,103295.53
2023-02-13T11:33:48.320Z,103298.91
2023-02-13T11:36:31.910Z,103296.13
2023-02-13T11:39:07.192Z,103287.13
2023-02-13T11:41:44.706Z,103301.38
2023-02-13T11:44:30.946Z,103289.72
2023-02-13T11:47:00.695Z,103285.28
2023-02-13T11:49:34.244Z,103294.28
2023-02-13T11:52:08.204Z,103291.75
2023-02-13T11:54:39.994Z,103291.84
2023-02-13T11:57:23.685Z,103295.38
2023-02-13T11:59:53.608Z,103284.38
2023-02-13T12:02:30.416Z,103290.38
2023-02-13T12:05:22.383Z,103280.44
2023-02-13T12:07:50.199Z,103283.63
2023-02-13T12:10:28.106Z,103282.41
2023-02-13T12:13:15.732Z,103282.41
2023-02-13T12:15:44.501Z,103272.56
2023-02-13T12:18:35.076Z,103269.88
2023-02-13T12:21:38.341Z,103280.53
2023-02-13T12:24:41.557Z,103269.66
2023-02-13T12:27:32.976Z,103273.91
2023-02-13T12:30:05.598Z,103261.19
2023-02-13T12:32:40.727Z,103244.00
2023-02-13T12:36:01.528Z,103250.06
2023-02-13T12:39:00.694Z,103248.16
2023-02-13T12:41:49.815Z,103236.91
2023-02-13T12:44:52.130Z,103246.53
2023-02-13T12:47:37.629Z,103232.09
2023-02-13T12:50:17.524Z,103223.59
2023-02-13T12:53:26.098Z,103219.09
2023-02-13T12:56:27.341Z,103217.66
2023-02-13T12:59:51.122Z,103217.50
2023-02-13T13:02:44.501Z,103222.50
2023-02-13T13:05:40.895Z,103211.91
2023-02-13T13:08:20.794Z,103222.94
2023-02-13T13:11:15.246Z,103217.72
2023-02-13T13:14:05.304Z,103220.56
2023-02-13T13:16:52.697Z,103211.91
2023-02-13T13:19:34.219Z,103211.03
2023-02-13T13:22:17.354Z,103208.28
2023-02-13T13:25:27.652Z,103201.13
2023-02-13T13:28:02.652Z,103201.88
2023-02-13T13:30:35.579Z,103195.81
2023-02-13T13:33:18.891Z,103189.16
2023-02-13T13:36:19.207Z,103196.41
2023-02-13T13:39:21.644Z,103186.44
2023-02-13T13:42:20.510Z,103176.91
2023-02-13T13:45:22.559Z,103180.69
2023-02-13T13:48:07.569Z,103182.69
2023-02-13T13:50:39.909Z,103177.06
2023-02-13T13:53:11.017Z,103169.59
2023-02-13T13:55:47.052Z,103176.69
2023-02-13T13:58:46.692Z,103175.13
2023-02-13T14:01:26.997Z,103169.72
2023-02-13T14:03:59.797Z,103160.13
2023-02-13T14:06:48.015Z,103159.63
2023-02-13T14:09:27.058Z,103157.22
2023-02-13T14:11:56.663Z,103149.19
2023-02-13T14:14:30.580Z,103162.94
2023-02-13T14:17:01.862Z,103150.94
2023-02-13T14:19:40.447Z,103151.94
2023-02-13T14:22:19.626Z,103154.13
2023-02-13T14:24:54.844Z,103149.78
2023-02-13T14:27:25.658Z,103156.34
2023-02-13T14:29:52.738Z,103149.94
2023-02-13T14:32:31.169Z,103154.41
2023-02-13T14:35:05.347Z,103148.00
2023-02-13T14:37:36.703Z,103150.09
2023-02-13T14:40:15.545Z,103150.03
2023-02-13T14:42:57.618Z,103144.66
2023-02-13T14:45:33.416Z,103146.00
2023-02-13T14:48:09.023Z,103138.78
2023-02-13T14:50:50.890Z,103139.69
2023-02-13T14:53:32.318Z,103141.13
2023-02-13T14:56:09.413Z,103133.09
2023-02-13T14:59:03.642Z,103140.13
2023-02-13T15:01:35.361Z,103135.41
2023-02-13T15:04:22.176Z,103130.06
2023-02-13T15:06:50.904Z,103125.69
2023-02-13T15:09:32.248Z,103126.69
2023-02-13T15:11:59.983Z,103119.31
2023-02-13T15:14:37.267Z,103131.69
2023-02-13T15:17:38.637Z,103131.53
2023-02-13T15:20:24.337Z,103139.38
2023-02-13T15:22:52.602Z,103136.22
2023-02-13T15:25:29.846Z,103133.59
2023-02-13T15:27:58.667Z,103131.97
2023-02-13T15:30:38.682Z,103137.38
2023-02-13T15:33:19.895Z,103135.69
2023-02-13T15:35:47.060Z,103126.69
2023-02-13T15:38:40.331Z,103130.03
2023-02-13T15:41:15.434Z,103127.81
2023-02-13T15:43:45.221Z,103137.19
2023-02-13T15:46:28.160Z,103130.94
2023-02-13T15:48:58.253Z,103132.06
2023-02-13T15:51:29.835Z,103133.88
2023-02-13T15:54:03.161Z,103125.38
2023-02-13T15:56:31.486Z,103122.81
2023-02-13T15:59:00.150Z,103128.91
2023-02-13T16:01:28.286Z,103127.94
2023-02-13T16:04:06.892Z,103130.91
2023-02-13T16:06:34.565Z,103130.09
2023-02-13T16:09:02.150Z,103124.25
2023-02-13T16:11:38.407Z,103126.53
2023-02-13T16:14:30.154Z,103129.06
2023-02-13T16:17:02.222Z,103127.19
2023-02-13T16:19:37.373Z,103132.78
2023-02-13T16:22:34.078Z,103134.19
2023-02-13T16:25:14.193Z,103128.31
2023-02-13T16:27:57.585Z,103140.41
2023-02-13T16:30:34.440Z,103135.75
2023-02-13T16:33:23.852Z,103128.22
2023-02-13T16:36:17.686Z,103139.75
2023-02-13T16:38:49.971Z,103132.03
2023-02-13T16:41:19.941Z,103142.34
2023-02-13T16:44:06.100Z,103141.84
2023-02-13T16:46:39.815Z,103141.84
2023-02-13T16:49:09.462Z,103141.78
2023-02-13T16:52:08.495Z,103143.53
2023-02-13T16:54:44.575Z,103145.38
2023-02-13T16:57:14.166Z,103148.25
2023-02-13T16:59:47.059Z,103147.06
2023-02-13T17:02:18.894Z,103152.38
2023-02-13T17:05:05.033Z,103153.06
2023-02-13T17:07:35.223Z,103156.34
2023-02-13T17:10:03.312Z,103154.38
2023-02-13T17:12:35.124Z,103159.50
2023-02-13T17:15:02.319Z,103162.63
2023-02-13T17:17:32.077Z,103161.13
2023-02-13T17:20:00.273Z,103166.03
2023-02-13T17:22:37.840Z,103163.00
2023-02-13T17:25:12.098Z,103158.16
2023-02-13T17:27:39.088Z,103156.72
2023-02-13T17:30:06.965Z,103157.84
2023-02-13T17:32:33.890Z,103168.84
2023-02-13T17:35:00.856Z,103164.53
2023-02-13T17:37:28.611Z,103176.41
2023-02-13T17:39:55.731Z,103162.41
2023-02-13T17:42:28.841Z,103152.97
2023-02-13T17:44:58.328Z,103162.00
2023-02-13T17:47:26.515Z,103161.53
2023-02-13T17:50:01.948Z,103159.88
2023-02-13T17:52:31.956Z,103161.97
2023-02-13T17:54:59.173Z,103156.84
2023-02-13T17:57:26.100Z,103160.50
2023-02-13T17:59:53.068Z,103160.63
2023-02-13T18:02:24.503Z,103171.41
2023-02-13T18:04:51.471Z,103163.47
2023-02-13T18:07:21.410Z,103165.38
2023-02-13T18:09:48.355Z,103158.38
2023-02-13T18:12:22.216Z,103161.13
2023-02-13T18:14:50.970Z,103160.44
2023-02-13T18:17:19.110Z,103161.47
2023-02-13T18:19:46.462Z,103160.72
2023-02-13T18:22:13.443Z,103165.47
2023-02-13T18:24:42.422Z,103162.78
2023-02-13T18:27:11.292Z,103157.59
2023-02-13T18:29:38.922Z,103158.66
2023-02-13T18:32:10.163Z,103149.13
2023-02-13T18:34:39.131Z,103164.22
2023-02-13T18:37:07.438Z,103155.44
2023-02-13T18:39:34.563Z,103161.66
2023-02-13T18:42:01.861Z,103157.31
2023-02-13T18:44:29.175Z,103150.25
2023-02-13T18:46:56.433Z,103148.63
2023-02-13T18:49:23.355Z,103152.28
2023-02-13T18:51:51.025Z,103155.00
2023-02-13T18:54:18.159Z,103159.69
2023-02-13T18:56:45.900Z,103153.63
2023-02-13T18:59:14.512Z,103163.53
2023-02-13T19:01:41.555Z,103150.31
2023-02-13T19:04:09.488Z,103158.34
2023-02-13T19:06:40.504Z,103148.59
2023-02-13T19:09:07.720Z,103154.09
2023-02-13T19:11:35.643Z,103157.72
2023-02-13T19:14:02.761Z,103156.91
2023-02-13T19:16:35.437Z,103159.72
2023-02-13T19:19:05.255Z,103158.94
2023-02-13T19:21:35.803Z,103153.78
2023-02-13T19:24:05.158Z,103167.16
2023-02-13T19:26:32.396Z,103160.13
2023-02-13T19:28:59.679Z,103167.34
2023-02-13T19:31:31.875Z,103167.44
2023-02-13T19:34:00.474Z,103158.72
2023-02-13T19:36:29.625Z,103163.19
2023-02-13T19:39:00.187Z,103160.59
2023-02-13T19:41:29.038Z,103160.66
2023-02-13T19:43:56.456Z,103168.78
2023-02-13T19:46:26.562Z,103162.63
2023-02-13T19:48:54.221Z,103167.13
2023-02-13T19:51:25.265Z,103160.09
2023-02-13T19:54:05.261Z,103150.34
2023-02-13T19:56:34.650Z,103147.72
2023-02-13T19:59:01.713Z,103147.72
2023-02-13T20:01:29.637Z,103158.41
2023-02-13T20:03:57.534Z,103153.22
2023-02-13T20:06:30.137Z,103147.88
2023-02-13T20:08:59.755Z,103149.63
2023-02-13T20:11:27.003Z,103145.19
2023-02-13T20:13:56.404Z,103152.28
2023-02-13T20:16:24.000Z,103141.59
2023-02-13T20:18:51.223Z,103133.56
2023-02-13T20:21:19.256Z,103138.88
2023-02-13T20:23:52.556Z,103140.78
2023-02-13T20:26:20.464Z,103144.34
2023-02-13T20:28:48.210Z,103137.25
2023-02-13T20:31:21.326Z,103132.81
2023-02-13T20:33:50.512Z,103139.03
2023-02-13T20:36:21.230Z,103140.78
2023-02-13T20:38:50.266Z,103136.44
2023-02-13T20:41:20.828Z,103138.31
2023-02-13T20:43:48.667Z,103130.44
2023-02-13T20:46:16.199Z,103145.63
2023-02-13T20:48:46.490Z,103137.69
2023-02-13T20:51:16.722Z,103128.84
2023-02-13T20:53:46.050Z,103139.53
2023-02-13T20:56:17.138Z,103135.19
2023-02-13T20:58:46.202Z,103134.28
2023-02-13T21:01:15.343Z,103128.06
2023-02-13T21:03:42.677Z,103130.81
2023-02-13T21:06:10.493Z,103138.84
2023-02-13T21:08:38.144Z,103129.16
2023-02-13T21:11:07.721Z,103127.38
2023-02-13T21:13:35.545Z,103135.41
2023-02-13T21:16:17.565Z,103120.34
2023-02-13T21:18:47.745Z,103137.28
2023-02-13T21:21:16.312Z,103136.38
2023-02-13T21:23:43.472Z,103136.38
2023-02-13T21:26:16.845Z,103127.53
2023-02-13T21:28:48.681Z,103119.63
2023-02-13T21:31:29.010Z,103132.97
2023-02-13T21:34:02.978Z,103129.47
2023-02-13T21:36:30.715Z,103129.53
2023-02-13T21:38:58.011Z,103135.75
2023-02-13T21:41:25.366Z,103133.03
2023-02-13T21:43:52.390Z,103126.81
2023-02-13T21:46:26.115Z,103125.94
2023-02-13T21:48:56.912Z,103129.53
2023-02-13T21:51:26.969Z,103128.66
2023-02-13T21:53:54.868Z,103131.38
2023-02-13T21:56:25.964Z,103127.91
2023-02-13T21:58:53.627Z,103130.63
2023-02-13T22:01:31.546Z,103133.41
2023-02-13T22:04:01.693Z,103137.97
2023-02-13T22:06:31.445Z,103126.56
2023-02-13T22:09:02.561Z,103131.97
2023-02-13T22:11:30.017Z,103122.28
2023-02-13T22:14:02.405Z,103132.06
2023-02-13T22:16:35.919Z,103135.69
2023-02-13T22:19:03.912Z,103134.91
2023-02-13T22:21:32.702Z,103123.41
2023-02-13T22:27:16.135Z,103117.38
2023-02-13T22:29:43.163Z,103132.38
2023-02-13T22:32:10.256Z,103132.41
2023-02-13T22:34:37.270Z,103129.78
2023-02-13T22:37:04.181Z,103131.59
2023-02-13T22:39:31.106Z,103126.28
2023-02-13T22:41:58.076Z,103134.28
2023-02-13T22:44:24.995Z,103134.28
2023-02-13T22:46:51.880Z,103140.47
2023-02-13T22:49:18.769Z,103138.72
2023-02-13T22:51:45.667Z,103140.53
2023-02-13T22:54:12.725Z,103143.19
2023-02-13T22:56:39.691Z,103135.19
2023-02-13T22:59:06.711Z,103136.09
2023-02-13T23:01:33.643Z,103137.88
2023-02-13T23:04:00.666Z,103129.00
2023-02-13T23:06:28.424Z,103138.75
2023-02-13T23:08:56.215Z,103139.75
2023-02-13T23:11:45.452Z,103132.72
2023-02-13T23:14:13.560Z,103135.47
2023-02-13T23:17:00.036Z,103131.13
2023-02-13T23:19:29.740Z,103133.91
2023-02-13T23:21:58.350Z,103138.41
2023-02-13T23:24:25.446Z,103136.69
2023-02-13T23:26:52.342Z,103131.38
2023-02-13T23:29:19.492Z,103128.72
2023-02-13T23:31:46.575Z,103126.94
2023-02-13T23:34:13.575Z,103125.25
2023-02-13T23:36:40.531Z,103125.25
2023-02-13T23:39:07.488Z,103123.53
2023-02-13T23:41:34.459Z,103122.66
2023-02-13T23:44:01.402Z,103121.78
2023-02-13T23:46:28.433Z,103127.09
2023-02-13T23:48:55.403Z,103125.34
2023-02-13T23:51:23.293Z,103118.28
2023-02-13T23:53:53.080Z,103128.91
2023-02-13T23:56:20.040Z,103129.78
2023-02-13T23:58:46.949Z,103129.78
